WetterOnline ( https://www.wetteronline.at )

Wetter aktuell Putbus

Aktuelles Wetter: Putbus/Rügen (41m)

6-stündlich | Neueste Meldungen
Ortszeit Temperatur Wetter
Mi, 18.05. 8:00 11.4° C wolkig
Mi, 18.05. 2:00 8.3° C fast wolkenlos
Di, 17.05. 20:00 13.0° C wolkenlos
Di, 17.05. 14:00 15.5° C wolkig
Di, 17.05. 8:00 12.7° C bedeckt
Di, 17.05. 2:00 9.6° C bedeckt
Mo, 16.05. 20:00 12.7° C bedeckt
Mo, 16.05. 14:00 16.4° C bedeckt
Ortszeit Temperatur Wetter
Mi, 18.05. 12:00 15.5° C wolkig
Mi, 18.05. 11:50 15.5° C bedeckt
Mi, 18.05. 11:40 14.9° C bedeckt
Mi, 18.05. 11:30 14.9° C bewölkt
Mi, 18.05. 11:20 14.9° C bewölkt
Mi, 18.05. 11:10 15.0° C bewölkt
Mi, 18.05. 11:00 14.4° C wolkig
Mi, 18.05. 10:30 14.0° C bedeckt
Mi, 18.05. 10:00 13.1° C wolkig
Mi, 18.05. 9:30 13.2° C bedeckt
Mi, 18.05. 9:00 12.7° C wolkig
Ortszeit Relative Feuchte Sichtweite
Mi, 18.05. 8:00 55% 60 km
Mi, 18.05. 2:00 76% >70 km
Di, 17.05. 20:00 45% >70 km
Di, 17.05. 14:00 62% 50 km
Di, 17.05. 8:00 71% >70 km
Di, 17.05. 2:00 89% 60 km
Mo, 16.05. 20:00 72% >70 km
Mo, 16.05. 14:00 51% 65 km
Ortszeit Relative Feuchte Sichtweite
Mi, 18.05. 12:00 52% >70 km
Mi, 18.05. 11:50 52% -
Mi, 18.05. 11:40 53% -
Mi, 18.05. 11:30 52% >70 km
Mi, 18.05. 11:20 52% -
Mi, 18.05. 11:10 50% -
Mi, 18.05. 11:00 48% 50 km
Mi, 18.05. 10:30 48% 50 km
Mi, 18.05. 10:00 51% >70 km
Mi, 18.05. 9:30 51% 50 km
Mi, 18.05. 9:00 52% >70 km
Ortszeit Niederschlagsmenge Niederschlagsart
Mi, 18.05. 8:00 0.0 l/m2 in 12 Std. -
Mi, 18.05. 2:00 0.0 l/m2 in 6 Std. -
Di, 17.05. 20:00 0.0 l/m2 in 12 Std. -
Di, 17.05. 14:00 0.0 l/m2 in 6 Std. -
Di, 17.05. 8:00 0.0 l/m2 in 12 Std. -
Di, 17.05. 2:00 0.0 l/m2 in 6 Std. -
Mo, 16.05. 20:00 0.0 l/m2 in 12 Std. -
Mo, 16.05. 14:00 0.0 l/m2 in 6 Std. -
Ortszeit Niederschlagsmenge Niederschlagsart
Mi, 18.05. 12:00 0.0 l/m2 in 1 Std. -
Mi, 18.05. 11:50 keine Meldung -
Mi, 18.05. 11:40 keine Meldung -
Mi, 18.05. 11:30 0.0 l/m2 in 1 Std. -
Mi, 18.05. 11:20 keine Meldung -
Mi, 18.05. 11:10 keine Meldung -
Mi, 18.05. 11:00 0.0 l/m2 in 1 Std. -
Mi, 18.05. 10:30 0.0 l/m2 in 1 Std. -
Mi, 18.05. 10:00 0.0 l/m2 in 1 Std. -
Mi, 18.05. 9:30 0.0 l/m2 in 1 Std. -
Mi, 18.05. 9:00 0.0 l/m2 in 1 Std. -
Ortszeit Stärke Spitze Richtung
km/h Bft. km/h Grad Sektor
Mi, 18.05. 8:00 15 3 37 150° SO
Mi, 18.05. 2:00 11 2 36 110° O
Di, 17.05. 20:00 18 3 40 80° O
Di, 17.05. 14:00 18 3 25 50° NO
Di, 17.05. 8:00 11 2 22 100° O
Di, 17.05. 2:00 9 2 17 30° NO
Mo, 16.05. 20:00 11 2 25 60° NO
Mo, 16.05. 14:00 9 2 17 120° SO
Ortszeit Stärke Spitze Richtung
km/h Bft. km/h Grad Sektor
Mi, 18.05. 12:00 17 3 31 130° SO
Mi, 18.05. 11:50 17 3 - 130° SO
Mi, 18.05. 11:40 18 3 - 130° SO
Mi, 18.05. 11:30 18 3 32 140° SO
Mi, 18.05. 11:20 18 3 - 140° SO
Mi, 18.05. 11:10 18 3 - 140° SO
Mi, 18.05. 11:00 14 3 36 140° SO
Mi, 18.05. 10:30 19 3 31 150° SO
Mi, 18.05. 10:00 15 3 30 140° SO
Mi, 18.05. 9:30 13 3 28 140° SO
Mi, 18.05. 9:00 13 3 30 150° SO
Ortszeit Untergrenze Bedeckung Gattung
total tief tief mittel hoch
Mi, 18.05. 8:00 5400 m 8/8 8/8 - - -
Mi, 18.05. 2:00 9000 m 1/8 0/8 - - -
Di, 17.05. 20:00 - 0/8 0/8 - - -
Di, 17.05. 14:00 6000 m 8/8 8/8 - - -
Di, 17.05. 8:00 3600 m 8/8 8/8 - - -
Di, 17.05. 2:00 4200 m 8/8 8/8 - - -
Mo, 16.05. 20:00 3600 m 8/8 8/8 - - -
Mo, 16.05. 14:00 3600 m 8/8 8/8 - - -
Ortszeit Bedeckungsgrad in Achtel und Wolkenuntergrenze
Mi, 18.05. 12:00 8(5100m) 8(7200m)
Mi, 18.05. 11:50 8(5100m) 8(7200m)
Mi, 18.05. 11:40 8
Mi, 18.05. 11:30 5(5400m) 7(6300m) 7(6900m)
Mi, 18.05. 11:20 5(5400m) 7(6300m) 7(6900m)
Mi, 18.05. 11:10 7
Mi, 18.05. 11:00 7(5700m) 8(6600m) 8(7500m)
Mi, 18.05. 10:30 7(5700m) 8(6600m) 8(9000m)
Mi, 18.05. 10:00 1(5700m) 8(6300m) 8(9000m)
Mi, 18.05. 9:30 2(5400m) 7(6300m) 8(6900m)
Mi, 18.05. 9:00 8(5400m) 8(6300m)
Ortszeit Luftdruck NN (hPa) Tendenz (hPa in 3 Std.)
Mi, 18.05. 8:00 1027 + 0,4
Mi, 18.05. 2:00 1027 + 0,8
Di, 17.05. 20:00 1024 + 0,7
Di, 17.05. 14:00 1023 + 1,1
Di, 17.05. 8:00 1021 + 0,7
Di, 17.05. 2:00 1020 + 0,6
Mo, 16.05. 20:00 1020 - 0,5
Mo, 16.05. 14:00 1021 - 0,5
Ortszeit Luftdruck NN (hPa) Tendenz (hPa in 3 Std.)
Mi, 18.05. 12:00 1027 - 0,6
Mi, 18.05. 11:50 1027 keine Meldung
Mi, 18.05. 11:40 1027 keine Meldung
Mi, 18.05. 11:30 1027 - 0,4
Mi, 18.05. 11:20 1027 keine Meldung
Mi, 18.05. 11:10 1027 keine Meldung
Mi, 18.05. 11:00 1027 - 0,3
Mi, 18.05. 10:30 1027 - 0,1
Mi, 18.05. 10:00 1027 0,0
Mi, 18.05. 9:30 1027 + 0,1
Mi, 18.05. 9:00 1027 + 0,4
Ortszeit Schneehöhe (cm)
Mi, 18.05. 8:00 0
Mi, 18.05. 2:00 0
Di, 17.05. 20:00 0
Di, 17.05. 14:00 0
Di, 17.05. 8:00 0
Di, 17.05. 2:00 0
Mo, 16.05. 20:00 0
Mo, 16.05. 14:00 0
Ortszeit Schneehöhe (cm)
Mi, 18.05. 12:00 0
Mi, 18.05. 11:50 0
Mi, 18.05. 11:40 0
Mi, 18.05. 11:30 0
Mi, 18.05. 11:20 0
Mi, 18.05. 11:10 0
Mi, 18.05. 11:00 0
Mi, 18.05. 10:30 0
Mi, 18.05. 10:00 0
Mi, 18.05. 9:30 0
Mi, 18.05. 9:00 0
Link zu dieser Seite / Seite empfehlen

Das Wetter in ...